sensor_id;sensor_type;location;lat;lon;timestamp;temperature;humidity
19864;DHT22;10094;48.820;9.226;2023-03-24T00:00:05;14.70;99.90
19864;DHT22;10094;48.820;9.226;2023-03-24T00:06:52;14.60;99.90
19864;DHT22;10094;48.820;9.226;2023-03-24T00:13:35;14.60;99.90
19864;DHT22;10094;48.820;9.226;2023-03-24T00:20:20;14.70;99.90
19864;DHT22;10094;48.820;9.226;2023-03-24T00:27:03;14.70;99.90
19864;DHT22;10094;48.820;9.226;2023-03-24T00:33:47;14.70;99.90
19864;DHT22;10094;48.820;9.226;2023-03-24T00:40:32;14.60;99.90
19864;DHT22;10094;48.820;9.226;2023-03-24T00:47:14;14.60;99.90
19864;DHT22;10094;48.820;9.226;2023-03-24T00:53:59;14.60;99.90
19864;DHT22;10094;48.820;9.226;2023-03-24T01:00:45;14.50;99.90
19864;DHT22;10094;48.820;9.226;2023-03-24T01:07:29;14.60;99.90
19864;DHT22;10094;48.820;9.226;2023-03-24T01:14:12;14.50;99.90
19864;DHT22;10094;48.820;9.226;2023-03-24T01:20:54;14.40;99.90
19864;DHT22;10094;48.820;9.226;2023-03-24T01:27:37;14.30;99.90
19864;DHT22;10094;48.820;9.226;2023-03-24T01:34:19;14.50;99.90
19864;DHT22;10094;48.820;9.226;2023-03-24T01:41:03;14.60;99.90
19864;DHT22;10094;48.820;9.226;2023-03-24T01:47:46;14.60;99.90
19864;DHT22;10094;48.820;9.226;2023-03-24T01:54:32;14.60;99.90
19864;DHT22;10094;48.820;9.226;2023-03-24T02:01:19;14.70;99.90
19864;DHT22;10094;48.820;9.226;2023-03-24T02:08:20;14.60;99.90
19864;DHT22;10094;48.820;9.226;2023-03-24T02:15:04;14.50;99.90
19864;DHT22;10094;48.820;9.226;2023-03-24T02:28:46;14.60;99.90
19864;DHT22;10094;48.820;9.226;2023-03-24T02:50:28;14.80;99.90
19864;DHT22;10094;48.820;9.226;2023-03-24T02:57:35;14.80;99.90
19864;DHT22;10094;48.820;9.226;2023-03-24T03:04:46;14.70;99.90
19864;DHT22;10094;48.820;9.226;2023-03-24T03:11:31;14.70;99.90
19864;DHT22;10094;48.820;9.226;2023-03-24T03:18:28;14.80;99.90
19864;DHT22;10094;48.820;9.226;2023-03-24T03:25:15;14.80;99.90
19864;DHT22;10094;48.820;9.226;2023-03-24T03:32:05;14.90;99.90
19864;DHT22;10094;48.820;9.226;2023-03-24T03:39:14;15.00;99.90
19864;DHT22;10094;48.820;9.226;2023-03-24T03:45:59;15.10;99.90
19864;DHT22;10094;48.820;9.226;2023-03-24T03:52:49;15.20;99.90
19864;DHT22;10094;48.820;9.226;2023-03-24T03:59:34;15.30;99.90
19864;DHT22;10094;48.820;9.226;2023-03-24T04:21:04;15.20;99.90
19864;DHT22;10094;48.820;9.226;2023-03-24T04:34:45;15.10;99.90
19864;DHT22;10094;48.820;9.226;2023-03-24T04:41:55;15.10;99.90
19864;DHT22;10094;48.820;9.226;2023-03-24T04:48:41;15.20;99.90
19864;DHT22;10094;48.820;9.226;2023-03-24T05:02:35;15.30;99.90
19864;DHT22;10094;48.820;9.226;2023-03-24T05:09:23;15.40;99.90
19864;DHT22;10094;48.820;9.226;2023-03-24T05:16:07;15.50;99.90
19864;DHT22;10094;48.820;9.226;2023-03-24T05:22:56;15.60;99.90
19864;DHT22;10094;48.820;9.226;2023-03-24T05:29:39;15.80;99.90
19864;DHT22;10094;48.820;9.226;2023-03-24T05:36:23;16.00;99.90
19864;DHT22;10094;48.820;9.226;2023-03-24T05:43:11;15.90;99.90
19864;DHT22;10094;48.820;9.226;2023-03-24T05:49:58;15.60;99.90
19864;DHT22;10094;48.820;9.226;2023-03-24T05:56:44;15.50;99.90
19864;DHT22;10094;48.820;9.226;2023-03-24T06:03:39;15.20;99.90
19864;DHT22;10094;48.820;9.226;2023-03-24T06:10:27;15.10;99.90
19864;DHT22;10094;48.820;9.226;2023-03-24T06:17:12;14.90;99.90
19864;DHT22;10094;48.820;9.226;2023-03-24T06:23:58;14.70;99.90
19864;DHT22;10094;48.820;9.226;2023-03-24T06:30:45;14.40;99.90
19864;DHT22;10094;48.820;9.226;2023-03-24T06:37:33;14.60;99.90
19864;DHT22;10094;48.820;9.226;2023-03-24T06:44:17;14.80;99.90
19864;DHT22;10094;48.820;9.226;2023-03-24T06:51:00;14.80;99.90
19864;DHT22;10094;48.820;9.226;2023-03-24T06:57:42;14.80;99.90
19864;DHT22;10094;48.820;9.226;2023-03-24T07:04:51;14.80;99.90
19864;DHT22;10094;48.820;9.226;2023-03-24T07:11:50;14.90;99.90
19864;DHT22;10094;48.820;9.226;2023-03-24T07:18:33;14.90;99.90
19864;DHT22;10094;48.820;9.226;2023-03-24T07:25:19;14.80;99.90
19864;DHT22;10094;48.820;9.226;2023-03-24T07:32:11;14.70;99.90
19864;DHT22;10094;48.820;9.226;2023-03-24T07:38:54;14.60;99.90
19864;DHT22;10094;48.820;9.226;2023-03-24T07:45:43;14.50;99.90
19864;DHT22;10094;48.820;9.226;2023-03-24T07:52:28;14.30;99.90
19864;DHT22;10094;48.820;9.226;2023-03-24T07:59:11;14.30;99.90
19864;DHT22;10094;48.820;9.226;2023-03-24T08:06:20;14.10;99.90
19864;DHT22;10094;48.820;9.226;2023-03-24T08:13:06;14.10;99.90
19864;DHT22;10094;48.820;9.226;2023-03-24T08:19:49;14.10;99.90
19864;DHT22;10094;48.820;9.226;2023-03-24T08:26:42;14.20;99.90
19864;DHT22;10094;48.820;9.226;2023-03-24T08:33:27;14.30;99.90
19864;DHT22;10094;48.820;9.226;2023-03-24T08:40:13;14.40;99.90
19864;DHT22;10094;48.820;9.226;2023-03-24T08:47:00;14.40;99.90
19864;DHT22;10094;48.820;9.226;2023-03-24T08:53:42;14.60;99.90
19864;DHT22;10094;48.820;9.226;2023-03-24T09:00:25;14.80;99.90
19864;DHT22;10094;48.820;9.226;2023-03-24T09:07:08;14.90;99.90
19864;DHT22;10094;48.820;9.226;2023-03-24T09:13:51;15.30;99.90
19864;DHT22;10094;48.820;9.226;2023-03-24T09:20:34;15.50;99.90
19864;DHT22;10094;48.820;9.226;2023-03-24T09:27:17;15.60;99.90
19864;DHT22;10094;48.820;9.226;2023-03-24T09:33:59;15.30;99.90
19864;DHT22;10094;48.820;9.226;2023-03-24T09:40:50;15.50;99.90
19864;DHT22;10094;48.820;9.226;2023-03-24T09:47:37;15.60;99.90
19864;DHT22;10094;48.820;9.226;2023-03-24T09:54:27;15.70;99.90
19864;DHT22;10094;48.820;9.226;2023-03-24T10:01:14;15.90;99.90
19864;DHT22;10094;48.820;9.226;2023-03-24T10:08:14;16.20;99.90
19864;DHT22;10094;48.820;9.226;2023-03-24T10:15:16;16.60;99.90
19864;DHT22;10094;48.820;9.226;2023-03-24T10:22:27;16.90;99.90
19864;DHT22;10094;48.820;9.226;2023-03-24T10:29:28;17.00;99.90
19864;DHT22;10094;48.820;9.226;2023-03-24T10:36:19;16.70;99.90
19864;DHT22;10094;48.820;9.226;2023-03-24T10:43:03;17.00;99.90
19864;DHT22;10094;48.820;9.226;2023-03-24T10:49:57;17.20;99.90
19864;DHT22;10094;48.820;9.226;2023-03-24T10:56:43;17.40;99.90
19864;DHT22;10094;48.820;9.226;2023-03-24T11:03:30;17.90;99.90
19864;DHT22;10094;48.820;9.226;2023-03-24T11:10:17;18.50;99.90
19864;DHT22;10094;48.820;9.226;2023-03-24T11:17:11;18.40;99.90
19864;DHT22;10094;48.820;9.226;2023-03-24T11:24:01;18.60;99.90
19864;DHT22;10094;48.820;9.226;2023-03-24T11:30:49;18.80;99.90
19864;DHT22;10094;48.820;9.226;2023-03-24T11:37:33;19.20;99.90
19864;DHT22;10094;48.820;9.226;2023-03-24T11:44:20;19.30;99.90
19864;DHT22;10094;48.820;9.226;2023-03-24T11:51:03;19.70;99.10
19864;DHT22;10094;48.820;9.226;2023-03-24T11:57:58;19.00;99.90
19864;DHT22;10094;48.820;9.226;2023-03-24T12:19:34;18.60;99.20
19864;DHT22;10094;48.820;9.226;2023-03-24T12:26:27;18.80;99.30
19864;DHT22;10094;48.820;9.226;2023-03-24T12:33:43;18.70;99.30
19864;DHT22;10094;48.820;9.226;2023-03-24T12:40:52;18.50;98.10
19864;DHT22;10094;48.820;9.226;2023-03-24T12:54:59;17.80;99.40
19864;DHT22;10094;48.820;9.226;2023-03-24T13:01:58;17.70;99.80
19864;DHT22;10094;48.820;9.226;2023-03-24T13:08:46;17.90;99.90
19864;DHT22;10094;48.820;9.226;2023-03-24T13:15:35;18.00;99.90
19864;DHT22;10094;48.820;9.226;2023-03-24T13:22:20;17.90;99.90
19864;DHT22;10094;48.820;9.226;2023-03-24T13:36:21;17.80;99.90
19864;DHT22;10094;48.820;9.226;2023-03-24T13:43:21;17.40;99.90
19864;DHT22;10094;48.820;9.226;2023-03-24T13:50:05;15.90;99.90
19864;DHT22;10094;48.820;9.226;2023-03-24T14:03:42;14.30;99.90
19864;DHT22;10094;48.820;9.226;2023-03-24T14:17:21;14.50;99.90
19864;DHT22;10094;48.820;9.226;2023-03-24T14:24:15;14.60;99.90
19864;DHT22;10094;48.820;9.226;2023-03-24T14:37:50;14.70;99.90
19864;DHT22;10094;48.820;9.226;2023-03-24T14:51:44;14.40;99.90
19864;DHT22;10094;48.820;9.226;2023-03-24T14:58:35;14.00;99.90
19864;DHT22;10094;48.820;9.226;2023-03-24T15:05:23;13.50;99.90
19864;DHT22;10094;48.820;9.226;2023-03-24T15:12:06;13.10;99.90
19864;DHT22;10094;48.820;9.226;2023-03-24T15:18:57;13.10;99.90
19864;DHT22;10094;48.820;9.226;2023-03-24T15:25:43;13.20;99.90
19864;DHT22;10094;48.820;9.226;2023-03-24T15:32:28;13.30;99.90
19864;DHT22;10094;48.820;9.226;2023-03-24T15:39:16;12.80;99.90
19864;DHT22;10094;48.820;9.226;2023-03-24T15:46:00;12.90;99.90
19864;DHT22;10094;48.820;9.226;2023-03-24T15:53:01;13.10;99.90
19864;DHT22;10094;48.820;9.226;2023-03-24T16:06:32;13.50;99.90
19864;DHT22;10094;48.820;9.226;2023-03-24T16:13:22;13.50;99.90
19864;DHT22;10094;48.820;9.226;2023-03-24T16:20:08;13.70;99.90
19864;DHT22;10094;48.820;9.226;2023-03-24T16:26:58;13.80;99.90
19864;DHT22;10094;48.820;9.226;2023-03-24T16:33:41;14.10;99.90
19864;DHT22;10094;48.820;9.226;2023-03-24T16:40:31;14.20;99.90
19864;DHT22;10094;48.820;9.226;2023-03-24T16:47:15;14.20;99.90
19864;DHT22;10094;48.820;9.226;2023-03-24T16:53:58;14.20;99.90
19864;DHT22;10094;48.820;9.226;2023-03-24T17:00:41;14.00;99.90
19864;DHT22;10094;48.820;9.226;2023-03-24T17:07:25;14.00;99.90
19864;DHT22;10094;48.820;9.226;2023-03-24T17:14:09;13.90;99.90
19864;DHT22;10094;48.820;9.226;2023-03-24T17:20:53;13.80;99.90
19864;DHT22;10094;48.820;9.226;2023-03-24T17:27:35;13.60;99.90
19864;DHT22;10094;48.820;9.226;2023-03-24T17:34:18;13.40;99.90
19864;DHT22;10094;48.820;9.226;2023-03-24T17:41:03;13.20;99.90
19864;DHT22;10094;48.820;9.226;2023-03-24T17:47:47;13.20;99.90
19864;DHT22;10094;48.820;9.226;2023-03-24T17:54:29;13.00;99.90
19864;DHT22;10094;48.820;9.226;2023-03-24T18:01:12;12.90;99.90
19864;DHT22;10094;48.820;9.226;2023-03-24T18:07:59;12.80;99.90
19864;DHT22;10094;48.820;9.226;2023-03-24T18:14:42;12.70;99.90
19864;DHT22;10094;48.820;9.226;2023-03-24T18:21:24;12.60;99.90
19864;DHT22;10094;48.820;9.226;2023-03-24T18:28:07;12.50;99.90
19864;DHT22;10094;48.820;9.226;2023-03-24T18:34:50;12.40;99.90
19864;DHT22;10094;48.820;9.226;2023-03-24T18:41:33;12.30;99.90
19864;DHT22;10094;48.820;9.226;2023-03-24T18:48:18;12.30;99.90
19864;DHT22;10094;48.820;9.226;2023-03-24T18:55:00;12.10;99.90
19864;DHT22;10094;48.820;9.226;2023-03-24T19:01:43;12.00;99.90
19864;DHT22;10094;48.820;9.226;2023-03-24T19:08:28;12.00;99.90
19864;DHT22;10094;48.820;9.226;2023-03-24T19:15:11;11.90;99.90
19864;DHT22;10094;48.820;9.226;2023-03-24T19:21:54;12.00;99.90
19864;DHT22;10094;48.820;9.226;2023-03-24T19:28:37;12.00;99.90
19864;DHT22;10094;48.820;9.226;2023-03-24T19:35:20;11.90;99.90
19864;DHT22;10094;48.820;9.226;2023-03-24T19:42:03;11.90;99.90
19864;DHT22;10094;48.820;9.226;2023-03-24T19:48:48;11.90;99.90
19864;DHT22;10094;48.820;9.226;2023-03-24T19:55:31;11.90;99.90
19864;DHT22;10094;48.820;9.226;2023-03-24T20:02:14;11.90;99.90
19864;DHT22;10094;48.820;9.226;2023-03-24T20:08:57;11.70;99.90
19864;DHT22;10094;48.820;9.226;2023-03-24T20:15:39;11.70;99.90
19864;DHT22;10094;48.820;9.226;2023-03-24T20:22:22;11.60;99.90
19864;DHT22;10094;48.820;9.226;2023-03-24T20:29:04;11.60;99.90
19864;DHT22;10094;48.820;9.226;2023-03-24T20:35:47;11.60;99.90
19864;DHT22;10094;48.820;9.226;2023-03-24T20:42:29;11.70;99.90
19864;DHT22;10094;48.820;9.226;2023-03-24T20:49:12;11.50;99.90
19864;DHT22;10094;48.820;9.226;2023-03-24T20:55:58;11.50;99.90
19864;DHT22;10094;48.820;9.226;2023-03-24T21:02:42;11.40;99.90
19864;DHT22;10094;48.820;9.226;2023-03-24T21:09:25;11.40;99.90
19864;DHT22;10094;48.820;9.226;2023-03-24T21:16:08;11.40;99.90
19864;DHT22;10094;48.820;9.226;2023-03-24T21:22:52;11.30;99.90
19864;DHT22;10094;48.820;9.226;2023-03-24T21:29:36;11.30;99.90
19864;DHT22;10094;48.820;9.226;2023-03-24T21:36:19;11.30;99.90
19864;DHT22;10094;48.820;9.226;2023-03-24T21:43:03;11.30;99.90
19864;DHT22;10094;48.820;9.226;2023-03-24T21:49:45;11.20;99.90
19864;DHT22;10094;48.820;9.226;2023-03-24T21:56:31;11.20;99.90
19864;DHT22;10094;48.820;9.226;2023-03-24T22:03:15;11.30;99.90
19864;DHT22;10094;48.820;9.226;2023-03-24T22:09:57;11.40;99.90
19864;DHT22;10094;48.820;9.226;2023-03-24T22:16:40;11.30;99.90
19864;DHT22;10094;48.820;9.226;2023-03-24T22:23:22;11.40;99.90
19864;DHT22;10094;48.820;9.226;2023-03-24T22:30:06;11.40;99.90
19864;DHT22;10094;48.820;9.226;2023-03-24T22:36:49;11.50;99.90
19864;DHT22;10094;48.820;9.226;2023-03-24T22:43:31;11.50;99.90
19864;DHT22;10094;48.820;9.226;2023-03-24T22:50:14;11.60;99.90
19864;DHT22;10094;48.820;9.226;2023-03-24T22:56:56;11.60;99.90
19864;DHT22;10094;48.820;9.226;2023-03-24T23:03:38;11.50;99.90
19864;DHT22;10094;48.820;9.226;2023-03-24T23:10:21;11.40;99.90
19864;DHT22;10094;48.820;9.226;2023-03-24T23:17:04;10.90;99.90
19864;DHT22;10094;48.820;9.226;2023-03-24T23:23:50;11.00;99.90
19864;DHT22;10094;48.820;9.226;2023-03-24T23:30:32;10.90;99.90
19864;DHT22;10094;48.820;9.226;2023-03-24T23:37:15;10.70;99.90
19864;DHT22;10094;48.820;9.226;2023-03-24T23:43:59;10.70;99.90
19864;DHT22;10094;48.820;9.226;2023-03-24T23:50:41;10.60;99.90
19864;DHT22;10094;48.820;9.226;2023-03-24T23:57:27;10.70;99.90
